Time;durP1;ratioP1;P1;durP2;ratioP2;P2;SDS_P1;SDS_P2;PMS_P1;PMS_P2;Temp;Humidity;BMP_temperature;BMP_pressure;BME280_temperature;BME280_humidity;BME280_pressure;Samples;Min_cycle;Max_cycle;Signal;HPM_P1;HPM_P2
2022/05/07 00:02:13;;;;;;;1999.90;999.90;;;12.40;99.90;;;;;;5035249;28;20852;-70
2022/05/07 00:04:39;;;;;;;1999.90;999.90;;;12.40;99.90;;;;;;5025585;28;20472;-70
2022/05/07 00:07:07;;;;;;;1999.90;999.90;;;12.50;99.90;;;;;;5028438;28;20505;-70
2022/05/07 00:09:35;;;;;;;1999.90;999.90;;;12.30;99.90;;;;;;5026329;28;20487;-70
2022/05/07 00:12:06;;;;;;;1999.90;999.90;;;12.20;99.90;;;;;;5026988;28;20519;-70
2022/05/07 00:14:32;;;;;;;1999.90;999.90;;;12.20;99.90;;;;;;5027013;28;20468;-71
2022/05/07 00:19:43;;;;;;;1999.90;999.90;;;12.10;99.90;;;;;;5025472;28;20479;-71
2022/05/07 00:22:10;;;;;;;1999.90;999.90;;;12.10;99.90;;;;;;5030443;28;20459;-70
2022/05/07 00:24:37;;;;;;;1999.90;999.90;;;12.00;99.90;;;;;;5034826;28;20794;-71
2022/05/07 00:27:06;;;;;;;1999.90;999.90;;;11.80;99.90;;;;;;5025795;28;20502;-70
2022/05/07 00:29:32;;;;;;;1999.90;999.90;;;11.70;99.90;;;;;;5034621;28;20863;-71
2022/05/07 00:31:59;;;;;;;1999.90;999.90;;;11.70;99.90;;;;;;5030948;28;20549;-70
2022/05/07 00:34:26;;;;;;;1999.90;999.90;;;11.60;99.90;;;;;;5029948;28;20485;-71
2022/05/07 00:36:53;;;;;;;1999.90;999.90;;;11.50;99.90;;;;;;5031414;28;20466;-70
2022/05/07 00:39:19;;;;;;;1999.90;999.90;;;11.60;99.90;;;;;;5029058;28;20467;-70
2022/05/07 00:41:46;;;;;;;1999.90;999.90;;;11.50;99.90;;;;;;5032168;28;20467;-70
2022/05/07 00:44:14;;;;;;;1999.90;999.90;;;11.50;99.90;;;;;;5027426;28;20451;-70
2022/05/07 00:46:41;;;;;;;1999.90;999.90;;;11.60;99.90;;;;;;5034833;28;20864;-70
2022/05/07 00:49:08;;;;;;;1999.90;999.90;;;11.30;99.90;;;;;;5033820;28;20478;-76
2022/05/07 00:51:34;;;;;;;1999.90;999.90;;;11.20;99.90;;;;;;5034008;28;20902;-70
2022/05/07 00:54:06;;;;;;;1999.90;999.90;;;11.30;99.90;;;;;;5034394;28;20522;-70
2022/05/07 00:56:33;;;;;;;1999.90;999.90;;;11.20;99.90;;;;;;5033924;28;20440;-70
2022/05/07 00:59:00;;;;;;;1999.90;999.90;;;11.20;99.90;;;;;;5034184;28;20469;-70
2022/05/07 01:01:29;;;;;;;1999.90;999.90;;;11.20;99.90;;;;;;5033457;28;20444;-71
2022/05/07 01:03:56;;;;;;;1999.90;999.90;;;11.10;99.90;;;;;;5034019;28;20447;-68
2022/05/07 01:06:23;;;;;;;1999.90;999.90;;;11.00;99.90;;;;;;5032578;28;20500;-70
2022/05/07 01:08:50;;;;;;;1999.90;999.90;;;10.90;99.90;;;;;;5031027;28;20541;-70
2022/05/07 01:11:17;;;;;;;1999.90;999.90;;;10.80;99.90;;;;;;5032999;28;20451;-70
2022/05/07 01:13:45;;;;;;;1999.90;999.90;;;10.90;99.90;;;;;;5032366;28;20948;-71
2022/05/07 01:16:13;;;;;;;1999.90;999.90;;;10.80;99.90;;;;;;5033663;28;20454;-74
2022/05/07 01:18:41;;;;;;;1999.90;999.90;;;10.90;99.90;;;;;;5024950;28;20483;-71
2022/05/07 01:21:10;;;;;;;1999.90;999.90;;;10.80;99.90;;;;;;5033803;28;20528;-71
2022/05/07 01:23:38;;;;;;;1999.90;999.90;;;10.80;99.90;;;;;;5023912;28;21045;-70
2022/05/07 01:26:05;;;;;;;1999.90;999.90;;;10.80;99.90;;;;;;5033643;28;20447;-71
2022/05/07 01:28:32;;;;;;;1999.90;999.90;;;10.80;99.90;;;;;;5025173;28;20492;-68
2022/05/07 01:30:58;;;;;;;1999.90;999.90;;;10.70;99.90;;;;;;5032810;28;21007;-71
2022/05/07 01:33:25;;;;;;;1999.90;999.90;;;10.70;99.90;;;;;;5025330;28;20479;-70
2022/05/07 01:35:52;;;;;;;1999.90;999.90;;;10.70;99.90;;;;;;5031553;28;20455;-70
2022/05/07 01:38:20;;;;;;;1999.90;999.90;;;10.70;99.90;;;;;;5032418;28;20487;-70
2022/05/07 01:40:47;;;;;;;1999.90;999.90;;;10.70;99.90;;;;;;5032079;28;20993;-72
2022/05/07 01:43:13;;;;;;;1999.90;999.90;;;10.80;99.90;;;;;;5032781;28;20874;-71
2022/05/07 01:45:40;;;;;;;1999.90;999.90;;;10.70;99.90;;;;;;5024041;28;20538;-72
2022/05/07 01:48:09;;;;;;;1999.90;999.90;;;10.70;99.90;;;;;;5032091;28;20471;-72
2022/05/07 01:50:36;;;;;;;1999.90;999.90;;;10.70;99.90;;;;;;5023979;28;20470;-72
2022/05/07 01:53:04;;;;;;;1999.90;999.90;;;10.60;99.90;;;;;;5032342;28;20483;-70
2022/05/07 01:55:33;;;;;;;1999.90;999.90;;;10.50;99.90;;;;;;5024438;28;20822;-70
2022/05/07 01:57:59;;;;;;;1999.90;999.90;;;10.50;99.90;;;;;;5024967;28;20478;-70
2022/05/07 02:00:28;;;;;;;1999.90;999.90;;;10.50;99.90;;;;;;5031001;28;20517;-71
2022/05/07 02:02:55;;;;;;;1999.90;999.90;;;10.40;99.90;;;;;;5032672;28;20443;-68
2022/05/07 02:05:22;;;;;;;1999.90;999.90;;;10.40;99.90;;;;;;5033285;28;20459;-69
2022/05/07 02:07:49;;;;;;;1999.90;999.90;;;10.40;99.90;;;;;;5032752;28;20447;-71
2022/05/07 02:10:16;;;;;;;1999.90;999.90;;;10.40;99.90;;;;;;5033151;28;20481;-67
2022/05/07 02:12:44;;;;;;;1999.90;999.90;;;10.30;99.90;;;;;;5032497;28;20490;-69
2022/05/07 02:15:11;;;;;;;1999.90;999.90;;;10.30;99.90;;;;;;5037014;28;20459;-69
2022/05/07 02:17:37;;;;;;;1999.90;999.90;;;10.30;99.90;;;;;;5037232;28;20478;-71
2022/05/07 02:20:06;;;;;;;1999.90;999.90;;;10.30;99.90;;;;;;5036916;28;20475;-71
2022/05/07 02:22:33;;;;;;;1999.90;999.90;;;10.20;99.90;;;;;;5037364;28;20447;-71
2022/05/07 02:25:00;;;;;;;1999.90;999.90;;;10.10;99.90;;;;;;5036716;28;20935;-70
2022/05/07 02:27:27;;;;;;;1999.90;999.90;;;10.10;99.90;;;;;;5036605;28;20447;-70
2022/05/07 02:29:55;;;;;;;1999.90;999.90;;;10.20;99.90;;;;;;5036547;28;20485;-71
2022/05/07 02:32:22;;;;;;;1999.90;999.90;;;10.10;99.90;;;;;;5036833;28;20491;-71
2022/05/07 02:34:49;;;;;;;1999.90;999.90;;;10.10;99.90;;;;;;5036895;28;20455;-71
2022/05/07 02:37:15;;;;;;;1999.90;999.90;;;10.10;99.90;;;;;;5036378;28;20986;-71
2022/05/07 02:39:42;;;;;;;1999.90;999.90;;;10.10;99.90;;;;;;5036569;28;20467;-70
2022/05/07 02:44:55;;;;;;;1999.90;999.90;;;10.20;99.90;;;;;;5037048;28;20419;-71
2022/05/07 02:47:21;;;;;;;1999.90;999.90;;;10.20;99.90;;;;;;5036620;28;20447;-69
2022/05/07 02:49:48;;;;;;;1999.90;999.90;;;10.20;99.90;;;;;;5035644;28;20471;-70
2022/05/07 02:52:15;;;;;;;1999.90;999.90;;;10.20;99.90;;;;;;5036273;28;20518;-69
2022/05/07 02:54:41;;;;;;;1999.90;999.90;;;10.20;99.90;;;;;;5036811;28;20461;-71
2022/05/07 02:57:08;;;;;;;1999.90;999.90;;;10.20;99.90;;;;;;5036766;28;20504;-71
2022/05/07 02:59:35;;;;;;;1999.90;999.90;;;10.20;99.90;;;;;;5035300;28;20497;-69
2022/05/07 03:02:03;;;;;;;1999.90;999.90;;;10.00;99.90;;;;;;5035903;28;20443;-69
2022/05/07 03:04:30;;;;;;;1999.90;999.90;;;10.10;99.90;;;;;;5036468;28;20477;-70
2022/05/07 03:06:56;;;;;;;1999.90;999.90;;;10.20;99.90;;;;;;5036119;28;20512;-71
2022/05/07 03:09:23;;;;;;;1999.90;999.90;;;10.10;99.90;;;;;;5036381;28;20477;-71
2022/05/07 03:11:50;;;;;;;1999.90;999.90;;;10.10;99.90;;;;;;5035771;28;20439;-71
2022/05/07 03:14:16;;;;;;;1999.90;999.90;;;10.00;99.90;;;;;;5035574;28;20450;-71
2022/05/07 03:16:43;;;;;;;1999.90;999.90;;;10.00;99.90;;;;;;5036150;28;20866;-72
2022/05/07 03:19:11;;;;;;;1999.90;999.90;;;9.90;99.90;;;;;;5035689;28;20463;-70
2022/05/07 03:21:38;;;;;;;1999.90;999.90;;;9.90;99.90;;;;;;5035902;28;20481;-71
2022/05/07 03:24:05;;;;;;;1999.90;999.90;;;9.90;99.90;;;;;;5035530;28;20963;-71
2022/05/07 03:26:32;;;;;;;1999.90;999.90;;;9.90;99.90;;;;;;5035152;28;20450;-70
2022/05/07 03:28:59;;;;;;;1999.90;999.90;;;9.80;99.90;;;;;;5035537;28;20532;-70
2022/05/07 03:31:26;;;;;;;1999.90;999.90;;;9.70;99.90;;;;;;5035620;28;20451;-76
2022/05/07 03:33:52;;;;;;;1999.90;999.90;;;9.70;99.90;;;;;;5035625;28;20475;-69
2022/05/07 03:36:20;;;;;;;1999.90;999.90;;;9.70;99.90;;;;;;5035287;28;20451;-70
2022/05/07 03:38:47;;;;;;;1999.90;999.90;;;9.60;99.90;;;;;;5035833;28;20466;-70
2022/05/07 03:41:15;;;;;;;1999.90;999.90;;;9.60;99.90;;;;;;5036313;28;20443;-68
2022/05/07 03:43:42;;;;;;;1999.90;999.90;;;9.40;99.90;;;;;;5036370;28;20893;-67
2022/05/07 03:46:09;;;;;;;1999.90;999.90;;;9.20;99.90;;;;;;5037011;28;20481;-68
2022/05/07 03:48:36;;;;;;;1999.90;999.90;;;9.00;99.90;;;;;;5035903;28;20920;-67
2022/05/07 03:51:03;;;;;;;1999.90;999.90;;;9.00;99.90;;;;;;5036256;28;20529;-70
2022/05/07 03:53:30;;;;;;;1999.90;999.90;;;9.30;99.90;;;;;;5035358;28;20515;-70
2022/05/07 03:55:57;;;;;;;1999.90;999.90;;;9.20;99.90;;;;;;5036395;28;20936;-68
2022/05/07 03:58:25;;;;;;;1999.90;999.90;;;9.40;99.90;;;;;;5035106;28;20479;-69
2022/05/07 04:00:53;;;;;;;1999.90;999.90;;;9.40;99.90;;;;;;5035722;28;20509;-69
2022/05/07 04:03:21;;;;;;;1999.90;999.90;;;9.50;99.90;;;;;;5035867;28;20897;-66
2022/05/07 04:05:48;;;;;;;1999.90;999.90;;;9.60;99.90;;;;;;5036172;28;20474;-68
2022/05/07 04:08:14;;;;;;;1999.90;999.90;;;9.70;99.90;;;;;;5035553;28;20885;-70
2022/05/07 04:10:43;;;;;;;1999.90;999.90;;;9.70;99.90;;;;;;5035666;28;20447;-69
2022/05/07 04:13:11;;;;;;;1999.90;999.90;;;9.80;99.90;;;;;;5035138;28;20502;-70
2022/05/07 04:15:38;;;;;;;1999.90;999.90;;;9.90;99.90;;;;;;5035097;28;20542;-70
2022/05/07 04:18:05;;;;;;;1999.90;999.90;;;9.90;99.90;;;;;;5034757;28;20467;-70
2022/05/07 04:20:32;;;;;;;1999.90;999.90;;;10.00;99.90;;;;;;5034913;28;20454;-70
2022/05/07 04:22:59;;;;;;;1999.90;999.90;;;10.10;99.90;;;;;;5034850;28;20449;-67
2022/05/07 04:25:26;;;;;;;1999.90;999.90;;;10.20;99.90;;;;;;5034653;28;20451;-71
2022/05/07 04:27:55;;;;;;;1999.90;999.90;;;10.30;99.90;;;;;;5034036;28;20447;-71
2022/05/07 04:30:21;;;;;;;1999.90;999.90;;;10.40;99.90;;;;;;5034985;28;20435;-71
2022/05/07 04:32:48;;;;;;;1999.90;999.90;;;10.40;99.90;;;;;;5031603;28;21025;-70
2022/05/07 04:35:15;;;;;;;1999.90;999.90;;;10.50;99.90;;;;;;5022310;28;20459;-66
2022/05/07 04:37:42;;;;;;;1999.90;999.90;;;10.80;99.90;;;;;;5025077;28;20830;-68
2022/05/07 04:40:10;;;;;;;1999.90;999.90;;;10.90;99.90;;;;;;5033653;28;20459;-70
2022/05/07 04:42:37;;;;;;;1999.90;999.90;;;11.20;99.90;;;;;;5035027;28;20475;-73
2022/05/07 04:45:06;;;;;;;1999.90;999.90;;;11.50;99.90;;;;;;5030876;28;20468;-70
2022/05/07 04:47:33;;;;;;;1999.90;999.90;;;11.70;99.90;;;;;;5031082;28;20452;-71
2022/05/07 04:50:00;;;;;;;1999.90;999.90;;;12.00;99.90;;;;;;5032555;28;21042;-71
2022/05/07 04:52:27;;;;;;;1999.90;999.90;;;12.30;99.90;;;;;;5033248;28;20472;-70
2022/05/07 04:54:54;;;;;;;1999.90;999.90;;;12.60;99.90;;;;;;5034049;28;20482;-71
2022/05/07 04:57:21;;;;;;;1999.90;999.90;;;12.80;99.90;;;;;;5032650;28;20888;-72
2022/05/07 04:59:48;;;;;;;1999.90;999.90;;;12.80;99.90;;;;;;5037459;28;20547;-68
2022/05/07 05:02:16;;;;;;;1999.90;999.90;;;12.90;99.90;;;;;;5033337;28;20459;-72
2022/05/07 05:04:42;;;;;;;1999.90;999.90;;;13.20;99.90;;;;;;5033300;28;20505;-71
2022/05/07 05:07:09;;;;;;;1999.90;999.90;;;13.50;99.90;;;;;;5031461;28;20514;-72
2022/05/07 05:09:36;;;;;;;1999.90;999.90;;;13.80;99.90;;;;;;5032525;28;20470;-70
2022/05/07 05:12:03;;;;;;;1999.90;999.90;;;14.20;99.90;;;;;;5023107;28;20463;-72
2022/05/07 05:17:13;;;;;;;1999.90;999.90;;;14.70;99.90;;;;;;5030740;28;20454;-71
2022/05/07 05:19:41;;;;;;;1999.90;999.90;;;15.00;99.90;;;;;;5027817;28;20486;-69
2022/05/07 05:22:08;;;;;;;1999.90;999.90;;;15.40;99.90;;;;;;5026141;28;20533;-69
2022/05/07 05:24:35;;;;;;;1999.90;999.90;;;15.90;99.90;;;;;;5032153;28;20454;-69
2022/05/07 05:27:01;;;;;;;1999.90;999.90;;;16.40;99.90;;;;;;5022650;28;20471;-70
2022/05/07 05:29:28;;;;;;;1999.90;999.90;;;16.70;99.90;;;;;;5048846;23;20563;-65
2022/05/07 05:31:55;;;;;;;1999.90;999.90;;;17.10;99.90;;;;;;5048658;28;20496;-65
2022/05/07 05:34:21;;;;;;;1999.90;999.90;;;17.50;99.90;;;;;;5064027;28;20481;-65
2022/05/07 05:36:49;;;;;;;1999.90;999.90;;;17.90;99.90;;;;;;5059225;28;20454;-65
2022/05/07 05:39:16;;;;;;;1999.90;999.90;;;18.40;99.90;;;;;;5063347;28;20548;-65
2022/05/07 05:41:44;;;;;;;1999.90;999.90;;;18.60;99.90;;;;;;5038031;28;20509;-62
2022/05/07 05:44:10;;;;;;;1999.90;999.90;;;18.70;99.90;;;;;;5038265;28;20831;-65
2022/05/07 05:46:37;;;;;;;1999.90;999.90;;;18.80;99.90;;;;;;5034506;28;20521;-68
2022/05/07 05:49:04;;;;;;;1999.90;999.90;;;18.60;99.90;;;;;;5026651;28;21044;-65
2022/05/07 05:51:30;;;;;;;1999.90;999.90;;;18.50;99.90;;;;;;5052131;28;20476;-64
2022/05/07 05:53:58;;;;;;;1999.90;999.90;;;18.10;99.90;;;;;;5051693;28;20535;-65
2022/05/07 05:56:25;;;;;;;1999.90;999.90;;;17.80;99.90;;;;;;5037397;28;20459;-64
2022/05/07 05:58:51;;;;;;;1999.90;999.90;;;17.70;99.90;;;;;;5032039;28;20467;-67
2022/05/07 06:01:18;;;;;;;1999.90;999.90;;;17.10;99.90;;;;;;5031592;28;20935;-67
2022/05/07 06:03:45;;;;;;;1999.90;999.90;;;16.50;99.90;;;;;;5031519;28;20443;-67
2022/05/07 06:06:11;;;;;;;1999.90;999.90;;;16.20;99.90;;;;;;5031679;28;20501;-67
2022/05/07 06:08:38;;;;;;;1999.90;999.90;;;15.90;99.90;;;;;;5030988;28;20456;-68
2022/05/07 06:11:07;;;;;;;1999.90;999.90;;;15.90;99.90;;;;;;5031845;28;20447;-67
2022/05/07 06:13:33;;;;;;;1999.90;999.90;;;16.00;99.90;;;;;;5031507;28;20487;-67
2022/05/07 06:16:00;;;;;;;1999.90;999.90;;;16.10;99.90;;;;;;5031653;28;20443;-67
2022/05/07 06:18:27;;;;;;;1999.90;999.90;;;16.10;99.90;;;;;;5031437;28;20497;-65
2022/05/07 06:20:53;;;;;;;1999.90;999.90;;;16.10;99.90;;;;;;5031333;28;20461;-67
2022/05/07 06:23:20;;;;;;;1999.90;999.90;;;16.10;99.90;;;;;;5031090;28;20513;-67
2022/05/07 06:28:32;;;;;;;1999.90;999.90;;;16.10;99.90;;;;;;5031224;28;20497;-65
2022/05/07 06:30:59;;;;;;;1999.90;999.90;;;16.00;99.90;;;;;;5031022;28;20497;-67
2022/05/07 06:33:26;;;;;;;1999.90;999.90;;;16.00;99.90;;;;;;5029426;28;20529;-67
2022/05/07 06:35:52;;;;;;;1999.90;999.90;;;15.90;99.90;;;;;;5031425;28;20482;-67
2022/05/07 06:38:20;;;;;;;1999.90;999.90;;;15.80;99.90;;;;;;5031594;28;20443;-67
2022/05/07 06:40:46;;;;;;;1999.90;999.90;;;15.80;99.90;;;;;;5031037;28;20521;-65
2022/05/07 06:43:13;;;;;;;1999.90;999.90;;;15.90;99.90;;;;;;5030842;28;20451;-65
2022/05/07 06:45:41;;;;;;;1999.90;999.90;;;16.10;99.90;;;;;;5031438;28;20497;-65
2022/05/07 06:48:11;;;;;;;1999.90;999.90;;;16.20;99.90;;;;;;5030878;28;20504;-65
2022/05/07 06:50:38;;;;;;;1999.90;999.90;;;16.40;99.90;;;;;;5031489;28;20467;-65
2022/05/07 06:53:05;;;;;;;1999.90;999.90;;;16.80;99.90;;;;;;5030923;28;20807;-65
2022/05/07 06:55:33;;;;;;;1999.90;999.90;;;17.10;99.90;;;;;;5031208;28;20447;-65
2022/05/07 06:58:00;;;;;;;1999.90;999.90;;;17.50;99.90;;;;;;5031406;28;20451;-65
2022/05/07 07:00:27;;;;;;;1999.90;999.90;;;17.80;99.90;;;;;;5031369;28;20475;-65
2022/05/07 07:02:55;;;;;;;1999.90;999.90;;;18.00;99.90;;;;;;5034594;28;20482;-65
2022/05/07 07:05:22;;;;;;;1999.90;999.90;;;18.20;99.90;;;;;;5034900;28;20439;-65
2022/05/07 07:07:48;;;;;;;1999.90;999.90;;;18.90;99.90;;;;;;5034627;28;20534;-65
2022/05/07 07:10:15;;;;;;;1999.90;999.90;;;19.00;99.90;;;;;;5034569;28;20459;-65
2022/05/07 07:12:42;;;;;;;1999.90;999.90;;;19.30;99.90;;;;;;5034455;28;20443;-65
2022/05/07 07:15:10;;;;;;;1999.90;999.90;;;19.60;99.90;;;;;;5034610;28;20495;-65
2022/05/07 07:17:36;;;;;;;1999.90;999.90;;;19.30;99.90;;;;;;5034634;28;20454;-65
2022/05/07 07:20:05;;;;;;;1999.90;999.90;;;19.00;99.80;;;;;;5034360;28;20551;-65
2022/05/07 07:22:32;;;;;;;1999.90;999.90;;;18.90;99.50;;;;;;5033913;28;20453;-66
2022/05/07 07:24:59;;;;;;;1999.90;999.90;;;19.10;99.30;;;;;;5034408;28;20439;-65
2022/05/07 07:27:26;;;;;;;1999.90;999.90;;;19.00;99.10;;;;;;5034409;28;20446;-64
2022/05/07 07:29:53;;;;;;;1999.90;999.90;;;19.40;99.20;;;;;;5034234;28;20521;-65
2022/05/07 07:32:20;;;;;;;1999.90;999.90;;;19.70;99.20;;;;;;5033781;28;20451;-68
2022/05/07 07:34:46;;;;;;;1999.90;999.90;;;20.20;99.30;;;;;;5033537;28;20487;-68
2022/05/07 07:37:14;;;;;;;1999.90;999.90;;;20.70;98.40;;;;;;5033814;28;20447;-67
2022/05/07 07:39:41;;;;;;;1999.90;999.90;;;21.20;97.20;;;;;;5023707;28;20553;-68
2022/05/07 07:42:08;;;;;;;1999.90;999.90;;;21.30;96.90;;;;;;5024033;28;20964;-67
2022/05/07 07:44:34;;;;;;;1999.90;999.90;;;21.30;97.00;;;;;;5027025;28;20455;-67
2022/05/07 07:49:45;;;;;;;1999.90;999.90;;;21.10;97.10;;;;;;5033648;28;20446;-68
2022/05/07 07:52:15;;;;;;;1999.90;999.90;;;21.10;97.00;;;;;;5033470;28;20529;-67
2022/05/07 07:54:42;;;;;;;1999.90;999.90;;;21.30;97.30;;;;;;5033717;28;20479;-66
2022/05/07 07:57:09;;;;;;;1999.90;999.90;;;21.40;96.80;;;;;;5033681;28;20864;-68
2022/05/07 07:59:35;;;;;;;1999.90;999.90;;;21.60;96.40;;;;;;5033913;28;20537;-68
2022/05/07 08:02:02;;;;;;;1999.90;999.90;;;21.90;95.20;;;;;;5033401;28;20447;-65
2022/05/07 08:04:29;;;;;;;1999.90;999.90;;;21.40;95.00;;;;;;5033604;28;20482;-64
2022/05/07 08:12:21;;;;;;;1999.90;999.90;;;21.00;96.80;;;;;;5032529;28;20440;-67
2022/05/07 08:14:48;;;;;;;1999.90;999.90;;;21.10;96.60;;;;;;5033325;28;20525;-68
2022/05/07 08:17:16;;;;;;;1999.90;999.90;;;21.40;97.10;;;;;;5033158;28;20459;-67
2022/05/07 08:19:43;;;;;;;1999.90;999.90;;;21.70;96.50;;;;;;5033466;28;20475;-67
2022/05/07 08:22:09;;;;;;;1999.90;999.90;;;21.80;97.40;;;;;;5032887;28;20530;-68
2022/05/07 08:24:37;;;;;;;1999.90;999.90;;;22.10;96.20;;;;;;5032527;28;20924;-66
2022/05/07 08:27:05;;;;;;;1999.90;999.90;;;22.10;95.90;;;;;;5033142;28;20504;-68
2022/05/07 08:29:31;;;;;;;1999.90;999.90;;;22.00;95.90;;;;;;5030659;28;20957;-67
2022/05/07 08:31:58;;;;;;;1999.90;999.90;;;22.00;95.30;;;;;;5031372;28;20505;-67
2022/05/07 08:34:25;;;;;;;1999.90;999.90;;;22.30;95.80;;;;;;5031579;28;20475;-65
2022/05/07 08:36:52;;;;;;;1999.90;999.90;;;21.80;95.60;;;;;;5032147;28;20498;-67
2022/05/07 08:39:18;;;;;;;1999.90;999.90;;;21.90;96.20;;;;;;5031396;28;21017;-68
2022/05/07 08:41:46;;;;;;;1999.90;999.90;;;22.00;95.90;;;;;;5031711;28;20478;-66
2022/05/07 08:44:13;;;;;;;1999.90;999.90;;;22.00;95.40;;;;;;5032985;28;20454;-66
2022/05/07 08:46:41;;;;;;;1999.90;999.90;;;21.70;95.60;;;;;;5032456;28;20490;-66
2022/05/07 08:49:10;;;;;;;1999.90;999.90;;;21.60;96.00;;;;;;5032926;28;20467;-65
2022/05/07 08:51:38;;;;;;;1999.90;999.90;;;21.40;97.40;;;;;;5032128;28;20505;-65
2022/05/07 08:54:05;;;;;;;1999.90;999.90;;;21.30;97.40;;;;;;5032966;28;20474;-65
2022/05/07 08:56:32;;;;;;;1999.90;999.90;;;21.60;97.30;;;;;;5032839;28;20447;-67
2022/05/07 08:59:00;;;;;;;1999.90;999.90;;;21.70;96.50;;;;;;5031940;28;20467;-68
2022/05/07 09:01:26;;;;;;;1999.90;999.90;;;21.80;96.40;;;;;;5032464;28;20451;-67
2022/05/07 09:03:53;;;;;;;1999.90;999.90;;;21.90;96.10;;;;;;5031889;28;20498;-67
2022/05/07 09:06:22;;;;;;;1999.90;999.90;;;22.00;96.30;;;;;;5032492;28;20443;-65
2022/05/07 09:08:50;;;;;;;1999.90;999.90;;;21.80;96.30;;;;;;5032230;28;20533;-66
2022/05/07 09:11:17;;;;;;;1999.90;999.90;;;21.70;96.40;;;;;;5032528;28;20466;-67
2022/05/07 09:13:45;;;;;;;1999.90;999.90;;;21.60;96.50;;;;;;5031925;28;20443;-66
2022/05/07 09:16:14;;;;;;;1999.90;999.90;;;21.70;96.40;;;;;;5031801;28;20443;-67
2022/05/07 09:18:48;;;;;;;1999.90;999.90;;;21.60;97.00;;;;;;5032178;28;20513;-66
2022/05/07 09:21:19;;;;;;;1999.90;999.90;;;21.50;96.60;;;;;;5032426;28;20423;-66
2022/05/07 09:23:47;;;;;;;1999.90;999.90;;;21.60;97.00;;;;;;5031595;28;20837;-66
2022/05/07 09:26:24;;;;;;;1999.90;999.90;;;21.70;96.40;;;;;;5032464;28;20485;-67
2022/05/07 09:28:51;;;;;;;1999.90;999.90;;;21.80;96.90;;;;;;5031471;28;21069;-68
2022/05/07 09:31:24;;;;;;;1999.90;999.90;;;22.20;97.00;;;;;;5032081;28;20501;-68
2022/05/07 09:33:51;;;;;;;1999.90;999.90;;;22.30;96.90;;;;;;5031607;28;20443;-67
2022/05/07 09:36:17;;;;;;;1999.90;999.90;;;22.60;96.10;;;;;;5031919;28;20947;-68
2022/05/07 09:38:44;;;;;;;1999.90;999.90;;;22.80;95.30;;;;;;5031893;28;20546;-68
2022/05/07 09:41:20;;;;;;;1999.90;999.90;;;22.50;95.30;;;;;;5032396;28;20200;-67
2022/05/07 09:43:50;;;;;;;1999.90;999.90;;;22.30;95.50;;;;;;5031229;28;20426;-65
2022/05/07 09:46:18;;;;;;;1999.90;999.90;;;22.10;95.10;;;;;;5029500;28;20447;-67
2022/05/07 09:48:47;;;;;;;1999.90;999.90;;;21.90;95.90;;;;;;5030618;28;20501;-66
2022/05/07 09:51:14;;;;;;;1999.90;999.90;;;21.90;95.90;;;;;;5030178;28;20479;-66
2022/05/07 09:59:13;;;;;;;1999.90;999.90;;;21.80;96.30;;;;;;5031252;28;20446;-66
2022/05/07 10:02:06;;;;;;;1999.90;999.90;;;22.10;96.40;;;;;;5031559;28;20443;-67
2022/05/07 10:05:01;;;;;;;1999.90;999.90;;;22.80;96.40;;;;;;5031489;28;20471;-67
2022/05/07 10:07:41;;;;;;;1999.90;999.90;;;23.50;95.00;;;;;;5031621;28;20450;-67
2022/05/07 10:10:20;;;;;;;1999.90;999.90;;;23.50;94.40;;;;;;5031702;28;20468;-66
2022/05/07 10:12:47;;;;;;;1999.90;999.90;;;23.30;93.60;;;;;;5031335;28;20506;-68
2022/05/07 10:15:16;;;;;;;1999.90;999.90;;;22.80;94.40;;;;;;5030013;28;20487;-67
2022/05/07 10:17:45;;;;;;;1999.90;999.90;;;22.60;94.20;;;;;;5031257;28;20951;-67
2022/05/07 10:20:21;;;;;;;1999.90;999.90;;;22.30;94.20;;;;;;5031675;28;20882;-66
2022/05/07 10:22:55;;;;;;;1999.90;999.90;;;21.80;95.70;;;;;;5030493;28;20447;-67
2022/05/07 10:25:22;;;;;;;1999.90;999.90;;;21.70;96.30;;;;;;5031640;28;20423;-67
2022/05/07 10:27:50;;;;;;;1999.90;999.90;;;21.70;96.40;;;;;;5031356;28;20443;-67
2022/05/07 10:30:19;;;;;;;1999.90;999.90;;;21.50;96.50;;;;;;5030902;28;21090;-67
2022/05/07 10:32:47;;;;;;;1999.90;999.90;;;21.50;96.70;;;;;;5031196;28;20454;-68
2022/05/07 10:35:16;;;;;;;1999.90;999.90;;;21.70;96.10;;;;;;5033614;28;20566;-67
2022/05/07 10:37:43;;;;;;;1999.90;999.90;;;22.00;97.00;;;;;;5035358;28;20534;-67
2022/05/07 10:40:12;;;;;;;1999.90;999.90;;;22.20;96.60;;;;;;5035099;28;20896;-68
2022/05/07 10:42:40;;;;;;;1999.90;999.90;;;22.20;96.20;;;;;;5034947;28;20451;-67
2022/05/07 10:45:07;;;;;;;1999.90;999.90;;;22.10;96.60;;;;;;5035183;28;20443;-67
2022/05/07 10:47:33;;;;;;;1999.90;999.90;;;22.30;96.10;;;;;;5035368;28;20451;-67
2022/05/07 10:50:09;;;;;;;1999.90;999.90;;;22.20;94.90;;;;;;5035168;28;20467;-67
2022/05/07 10:52:37;;;;;;;1999.90;999.90;;;22.00;94.80;;;;;;5034414;28;21022;-67
2022/05/07 10:55:06;;;;;;;1999.90;999.90;;;21.90;95.20;;;;;;5034791;28;20483;-67
2022/05/07 10:57:41;;;;;;;1999.90;999.90;;;22.00;95.40;;;;;;5034933;28;20505;-67
2022/05/07 11:00:13;;;;;;;1999.90;999.90;;;21.90;95.90;;;;;;5034720;28;20466;-68
2022/05/07 11:02:40;;;;;;;1999.90;999.90;;;21.70;95.90;;;;;;5034400;28;20447;-67
2022/05/07 11:05:07;;;;;;;1999.90;999.90;;;21.80;95.70;;;;;;5034569;28;20726;-66
2022/05/07 11:07:35;;;;;;;1999.90;999.90;;;21.40;96.60;;;;;;5034917;28;20543;-67
2022/05/07 11:10:03;;;;;;;1999.90;999.90;;;21.50;96.30;;;;;;5034810;28;20478;-67
2022/05/07 11:12:30;;;;;;;1999.90;999.90;;;21.50;96.50;;;;;;5034485;28;20446;-67
2022/05/07 11:14:57;;;;;;;1999.90;999.90;;;21.50;96.10;;;;;;5034434;28;20470;-67
2022/05/07 11:17:32;;;;;;;1999.90;999.90;;;21.60;96.00;;;;;;5034113;28;20544;-67
2022/05/07 11:19:59;;;;;;;1999.90;999.90;;;21.60;96.10;;;;;;5034284;28;20474;-67
2022/05/07 11:22:29;;;;;;;1999.90;999.90;;;21.70;96.00;;;;;;5034396;28;20458;-68
2022/05/07 11:24:57;;;;;;;1999.90;999.90;;;21.80;96.40;;;;;;5034480;28;20444;-67
2022/05/07 11:27:30;;;;;;;1999.90;999.90;;;22.10;96.20;;;;;;5034318;28;20451;-67
2022/05/07 11:29:57;;;;;;;1999.90;999.90;;;22.20;96.40;;;;;;5049415;22;20469;-68
2022/05/07 11:32:24;;;;;;;1999.90;999.90;;;22.30;95.60;;;;;;5044994;28;20454;-69
2022/05/07 11:34:56;;;;;;;1999.90;999.90;;;22.10;96.00;;;;;;5034635;28;20486;-70
2022/05/07 11:37:24;;;;;;;1999.90;999.90;;;22.40;96.30;;;;;;5034909;28;20475;-70
2022/05/07 11:39:53;;;;;;;1999.90;999.90;;;22.60;96.30;;;;;;5035051;28;20447;-70
2022/05/07 11:42:32;;;;;;;1999.90;999.90;;;23.00;95.00;;;;;;5044155;28;20458;-70
2022/05/07 11:47:57;;;;;;;1999.90;999.90;;;23.00;94.70;;;;;;5053845;28;20406;-69
2022/05/07 11:50:25;;;;;;;1999.90;999.90;;;22.60;95.30;;;;;;5053620;28;20473;-70
2022/05/07 11:52:53;;;;;;;1999.90;999.90;;;22.40;96.00;;;;;;5053902;28;20442;-69
2022/05/07 11:55:28;;;;;;;1999.90;999.90;;;21.80;97.00;;;;;;5053931;28;20482;-69
2022/05/07 11:57:57;;;;;;;1999.90;999.90;;;22.10;97.50;;;;;;5053559;28;20900;-69
2022/05/07 12:00:26;;;;;;;1999.90;999.90;;;21.70;97.80;;;;;;5053649;28;20462;-69
2022/05/07 12:02:54;;;;;;;1999.90;999.90;;;21.50;97.40;;;;;;5053269;28;20917;-69
2022/05/07 12:05:21;;;;;;;1999.90;999.90;;;21.50;97.20;;;;;;5053852;28;20434;-69
2022/05/07 12:07:49;;;;;;;1999.90;999.90;;;21.60;98.70;;;;;;5053609;28;20443;-69
2022/05/07 12:10:17;;;;;;;1999.90;999.90;;;21.90;99.10;;;;;;5053291;28;20893;-69
2022/05/07 12:12:44;;;;;;;1999.90;999.90;;;22.20;98.70;;;;;;5053476;28;20844;-69
2022/05/07 12:15:12;;;;;;;1999.90;999.90;;;22.40;97.90;;;;;;5053147;28;21002;-69
2022/05/07 12:17:53;;;;;;;1999.90;999.90;;;22.60;96.80;;;;;;5053646;28;20474;-69
2022/05/07 12:20:21;;;;;;;1999.90;999.90;;;22.40;97.70;;;;;;5053303;28;20473;-69
2022/05/07 12:31:02;;;;;;;1999.90;999.90;;;21.90;98.30;;;;;;5053226;28;20515;-69
2022/05/07 12:33:29;;;;;;;1999.90;999.90;;;21.90;98.90;;;;;;5052454;28;20545;-69
2022/05/07 12:35:55;;;;;;;1999.90;999.90;;;21.90;98.80;;;;;;5052804;28;20829;-69
2022/05/07 12:38:22;;;;;;;1999.90;999.90;;;21.80;98.70;;;;;;5052894;28;20873;-69
2022/05/07 12:40:49;;;;;;;1999.90;999.90;;;21.90;98.90;;;;;;5052845;28;21060;-69